createdAt,value
2016-05-11T00:00:52.700Z,16.43
2016-05-11T00:01:52.717Z,16.36
2016-05-11T00:02:52.705Z,16.43
2016-05-11T00:03:52.708Z,16.37
2016-05-11T00:04:52.710Z,16.29
2016-05-11T00:05:52.713Z,16.25
2016-05-11T00:06:52.700Z,16.16
2016-05-11T00:07:52.718Z,16.09
2016-05-11T00:08:52.722Z,16.1
2016-05-11T00:09:52.724Z,15.99
2016-05-11T00:10:52.726Z,16
2016-05-11T00:11:52.417Z,15.9
2016-05-11T00:12:52.732Z,15.84
2016-05-11T00:13:52.718Z,15.81
2016-05-11T00:14:52.738Z,15.8
2016-05-11T00:15:52.724Z,15.78
2016-05-11T00:16:52.727Z,15.65
2016-05-11T00:17:52.729Z,15.69
2016-05-11T00:18:52.576Z,15.67
2016-05-11T00:19:52.719Z,15.66
2016-05-11T00:20:52.721Z,15.75
2016-05-11T00:21:52.740Z,15.62
2016-05-11T00:22:52.743Z,15.72
2016-05-11T00:23:52.745Z,15.81
2016-05-11T00:24:52.796Z,15.91
2016-05-11T00:25:52.579Z,16.05
2016-05-11T00:26:52.738Z,16.05
2016-05-11T00:27:52.741Z,16.09
2016-05-11T00:28:52.759Z,16.21
2016-05-11T00:29:52.653Z,16.21
2016-05-11T00:30:52.748Z,16.26
2016-05-11T00:31:52.736Z,16.24
2016-05-11T00:32:52.754Z,16.25
2016-05-11T00:33:52.757Z,16.21
2016-05-11T00:34:52.759Z,16.18
2016-05-11T00:35:52.590Z,16.24
2016-05-11T00:36:52.765Z,16.16
2016-05-11T00:37:52.752Z,16.17
2016-05-11T00:38:52.598Z,16.1
2016-05-11T00:39:52.758Z,16.12
2016-05-11T00:40:52.760Z,15.98
2016-05-11T00:41:52.763Z,15.94
2016-05-11T00:42:52.749Z,15.9
2016-05-11T00:43:52.753Z,15.85
2016-05-11T00:44:52.614Z,15.87
2016-05-11T00:45:52.774Z,15.76
2016-05-11T00:46:52.761Z,15.8
2016-05-11T00:47:52.763Z,15.76
2016-05-11T00:48:52.766Z,15.8
2016-05-11T00:49:52.628Z,15.78
2016-05-11T00:50:52.771Z,15.8
2016-05-11T00:51:52.774Z,15.76
2016-05-11T00:52:52.776Z,15.78
2016-05-11T00:53:52.779Z,15.81
2016-05-11T00:54:52.626Z,15.84
2016-05-11T00:55:52.785Z,15.87
2016-05-11T00:56:52.787Z,15.83
2016-05-11T00:57:52.790Z,15.8
2016-05-11T00:58:52.777Z,15.83
2016-05-11T00:59:52.467Z,15.81
2016-05-11T01:00:52.782Z,15.76
2016-05-11T01:01:52.784Z,15.8
2016-05-11T01:02:52.787Z,15.76
2016-05-11T01:03:52.806Z,15.73
2016-05-11T01:04:52.793Z,15.6
2016-05-11T01:05:52.796Z,15.59
2016-05-11T01:06:52.642Z,15.45
2016-05-11T01:07:52.848Z,15.32
2016-05-11T01:08:52.647Z,15.33
2016-05-11T01:09:52.791Z,15.33
2016-05-11T01:10:52.653Z,15.25
2016-05-11T01:11:52.797Z,15.25
2016-05-11T01:12:52.800Z,15.15
2016-05-11T01:13:52.646Z,15.18
2016-05-11T01:14:52.867Z,15.07
2016-05-11T01:15:52.791Z,15.14
2016-05-11T01:16:52.655Z,15.11
2016-05-11T01:17:52.812Z,15.11
2016-05-11T01:18:52.815Z,15.12
2016-05-11T01:19:52.818Z,15.08
2016-05-11T01:20:52.821Z,15.11
2016-05-11T01:21:52.839Z,15.08
2016-05-11T01:22:52.670Z,15.05
2016-05-11T01:23:52.798Z,15.1
2016-05-11T01:24:52.659Z,15.02
2016-05-11T01:25:52.679Z,15.02
2016-05-11T01:26:52.665Z,15.1
2016-05-11T01:27:52.824Z,15.05
2016-05-11T01:28:52.827Z,15.04
2016-05-11T01:29:52.657Z,15.07
2016-05-11T01:30:52.675Z,15.05
2016-05-11T01:31:52.678Z,15.04
2016-05-11T01:32:52.823Z,15.02
2016-05-11T01:33:52.825Z,15
2016-05-11T01:34:52.828Z,15
2016-05-11T01:35:52.689Z,14.96
2016-05-11T01:36:52.676Z,14.93
2016-05-11T01:37:52.835Z,14.92
2016-05-11T01:38:52.839Z,14.89
2016-05-11T01:39:52.841Z,14.79
2016-05-11T01:40:52.858Z,14.67
2016-05-11T01:41:52.675Z,14.77
2016-05-11T01:42:52.833Z,14.62
2016-05-11T01:43:52.883Z,14.53
2016-05-11T01:44:52.839Z,14.52
2016-05-11T01:45:53.060Z,14.49
2016-05-11T01:46:52.843Z,14.43
2016-05-11T01:47:52.846Z,14.37
2016-05-11T01:48:52.850Z,14.31
2016-05-11T01:49:52.680Z,14.22
2016-05-11T01:50:52.839Z,14.31
2016-05-11T01:51:52.857Z,14.23
2016-05-11T01:52:52.688Z,14.15
2016-05-11T01:53:52.847Z,14.15
2016-05-11T01:54:52.849Z,14.13
2016-05-11T01:55:52.852Z,14.08
2016-05-11T01:56:52.855Z,14.05
2016-05-11T01:57:52.858Z,14
2016-05-11T01:58:52.860Z,14.01
2016-05-11T01:59:52.863Z,13.98
2016-05-11T02:00:53.037Z,13.87
2016-05-11T02:01:52.853Z,13.82
2016-05-11T02:02:52.855Z,13.89
2016-05-11T02:03:52.874Z,13.82
2016-05-11T02:04:52.862Z,13.76
2016-05-11T02:05:52.864Z,13.76
2016-05-11T02:06:52.866Z,13.79
2016-05-11T02:07:52.572Z,13.83
2016-05-11T02:08:52.872Z,13.79
2016-05-11T02:09:52.874Z,13.73
2016-05-11T02:10:52.861Z,13.79
2016-05-11T02:11:52.864Z,13.79
2016-05-11T02:12:52.726Z,13.86
2016-05-11T02:13:52.885Z,13.8
2016-05-11T02:14:52.872Z,13.83
2016-05-11T02:15:52.891Z,13.85
2016-05-11T02:16:52.894Z,13.79
2016-05-11T02:17:52.927Z,13.93
2016-05-11T02:18:52.883Z,13.86
2016-05-11T02:19:52.886Z,13.89
2016-05-11T02:20:52.888Z,13.93
2016-05-11T02:21:59.125Z,13.89
2016-05-11T02:22:52.644Z,13.87
2016-05-11T02:23:52.771Z,13.93
2016-05-11T02:24:52.774Z,13.83
2016-05-11T02:25:52.917Z,13.93
2016-05-11T02:26:52.779Z,13.94
2016-05-11T02:27:52.626Z,13.85
2016-05-11T02:28:52.769Z,13.78
2016-05-11T02:29:52.771Z,13.85
2016-05-11T02:30:53.571Z,13.91
2016-05-11T02:31:52.887Z,13.83
2016-05-11T02:32:52.905Z,13.86
2016-05-11T02:33:52.892Z,13.98
2016-05-11T02:34:52.895Z,13.95
2016-05-11T02:35:52.897Z,13.98
2016-05-11T02:36:52.900Z,14.01
2016-05-11T02:37:52.903Z,14.07
2016-05-11T02:38:52.906Z,14.11
2016-05-11T02:39:52.784Z,14.18
2016-05-11T02:40:52.926Z,14.08
2016-05-11T02:41:52.914Z,14.12
2016-05-11T02:42:52.916Z,14.05
2016-05-11T02:43:52.919Z,14.07
2016-05-11T02:44:52.905Z,14.07
2016-05-11T02:45:52.925Z,14.18
2016-05-11T02:46:52.942Z,14.15
2016-05-11T02:47:52.914Z,14.13
2016-05-11T02:48:52.917Z,14.11
2016-05-11T02:49:52.919Z,14.16
2016-05-11T02:50:52.922Z,14.12
2016-05-11T02:51:52.769Z,14.16
2016-05-11T02:52:52.943Z,14.15
2016-05-11T02:53:52.758Z,14.18
2016-05-11T02:54:52.933Z,14.2
2016-05-11T02:55:52.763Z,14.33
2016-05-11T02:56:52.954Z,14.41
2016-05-11T02:57:52.768Z,14.36
2016-05-11T02:58:52.929Z,14.34
2016-05-11T02:59:52.916Z,14.38
2016-05-11T03:00:52.949Z,14.34
2016-05-11T03:01:52.920Z,14.36
2016-05-11T03:02:52.782Z,14.45
2016-05-11T03:03:52.769Z,14.49
2016-05-11T03:04:52.772Z,14.51
2016-05-11T03:05:52.932Z,14.59
2016-05-11T03:06:52.778Z,14.68
2016-05-11T03:07:52.937Z,14.73
2016-05-11T03:08:52.970Z,14.73
2016-05-11T03:09:52.942Z,14.73
2016-05-11T03:10:52.944Z,14.68
2016-05-11T03:11:52.931Z,14.85
2016-05-11T03:12:52.934Z,14.79
2016-05-11T03:13:52.953Z,14.82
2016-05-11T03:14:52.939Z,14.82
2016-05-11T03:15:53.411Z,14.77
2016-05-11T03:16:52.789Z,14.68
2016-05-11T03:17:52.948Z,14.85
2016-05-11T03:18:52.950Z,14.79
2016-05-11T03:19:52.953Z,14.81
2016-05-11T03:20:52.955Z,14.92
2016-05-11T03:21:52.958Z,14.86
2016-05-11T03:22:52.946Z,14.86
2016-05-11T03:23:52.791Z,14.92
2016-05-11T03:24:52.952Z,14.86
2016-05-11T03:25:52.954Z,14.86
2016-05-11T03:26:52.957Z,14.82
2016-05-11T03:27:52.944Z,14.89
2016-05-11T03:28:52.962Z,14.94
2016-05-11T03:29:52.948Z,14.92
2016-05-11T03:30:52.989Z,14.89
2016-05-11T03:31:53.016Z,14.92
2016-05-11T03:32:53.042Z,14.89
2016-05-11T03:33:53.085Z,14.82
2016-05-11T03:34:52.986Z,14.87
2016-05-11T03:35:53.165Z,14.82
2016-05-11T03:36:53.182Z,14.78
2016-05-11T03:37:53.183Z,14.78
2016-05-11T03:38:53.200Z,14.77
2016-05-11T03:39:53.233Z,14.78
2016-05-11T03:40:53.232Z,14.82
2016-05-11T03:41:53.240Z,14.77
2016-05-11T03:42:53.247Z,14.77
2016-05-11T03:43:53.255Z,14.77
2016-05-11T03:44:53.107Z,14.52
2016-05-11T03:45:53.474Z,14.48
2016-05-11T03:46:53.104Z,14.2
2016-05-11T03:47:53.279Z,14.2
2016-05-11T03:48:53.112Z,14.11
2016-05-11T03:49:53.288Z,14
2016-05-11T03:50:53.122Z,13.82
2016-05-11T03:51:53.295Z,13.71
2016-05-11T03:52:53.284Z,13.67
2016-05-11T03:53:53.131Z,13.58
2016-05-11T03:54:53.290Z,13.55
2016-05-11T03:55:53.293Z,13.58
2016-05-11T03:56:53.296Z,13.49
2016-05-11T03:57:53.143Z,13.58
2016-05-11T03:58:53.286Z,13.61
2016-05-11T03:59:53.149Z,13.73
2016-05-11T04:00:53.153Z,13.89
2016-05-11T04:01:53.295Z,14
2016-05-11T04:02:53.298Z,14.03
2016-05-11T04:03:53.301Z,14.22
2016-05-11T04:04:53.147Z,14.25
2016-05-11T04:05:53.305Z,14.37
2016-05-11T04:06:53.308Z,14.44
2016-05-11T04:07:53.140Z,14.49
2016-05-11T04:08:53.158Z,14.49
2016-05-11T04:09:53.302Z,14.43
2016-05-11T04:10:53.335Z,14.52
2016-05-11T04:11:53.321Z,14.45
2016-05-11T04:12:53.309Z,14.52
2016-05-11T04:13:53.172Z,14.62
2016-05-11T04:14:53.002Z,14.67
2016-05-11T04:15:53.318Z,14.78
2016-05-11T04:16:53.304Z,14.79
2016-05-11T04:17:53.323Z,14.85
2016-05-11T04:18:53.310Z,14.93
2016-05-11T04:19:53.312Z,15
2016-05-11T04:20:53.174Z,15.05
2016-05-11T04:21:53.318Z,15.08
2016-05-11T04:22:53.320Z,15.08
2016-05-11T04:23:53.323Z,15.22
2016-05-11T04:24:53.326Z,15.15
2016-05-11T04:25:53.345Z,15.26
2016-05-11T04:26:53.348Z,15.17
2016-05-11T04:27:53.334Z,15.15
2016-05-11T04:28:53.321Z,15.17
2016-05-11T04:29:53.261Z,15.15
2016-05-11T04:30:53.498Z,15.23
2016-05-11T04:31:53.203Z,15.25
2016-05-11T04:32:53.223Z,15.3
2016-05-11T04:33:53.225Z,15.35
2016-05-11T04:34:53.211Z,15.35
2016-05-11T04:35:53.214Z,15.33
2016-05-11T04:36:53.233Z,15.33
2016-05-11T04:37:53.235Z,15.44
2016-05-11T04:38:53.067Z,15.52
2016-05-11T04:39:53.210Z,15.59
2016-05-11T04:40:53.228Z,15.6
2016-05-11T04:41:53.231Z,15.67
2016-05-11T04:42:53.061Z,15.75
2016-05-11T04:43:53.236Z,15.83
2016-05-11T04:44:53.224Z,15.84
2016-05-11T04:45:53.241Z,15.98
2016-05-11T04:46:53.229Z,15.98
2016-05-11T04:47:53.232Z,16.16
2016-05-11T04:48:53.234Z,16.31
2016-05-11T04:49:53.237Z,16.43
2016-05-11T04:50:53.224Z,16.65
2016-05-11T04:51:53.242Z,16.79
2016-05-11T04:52:53.260Z,16.69
2016-05-11T04:53:53.248Z,16.76
2016-05-11T04:54:53.281Z,16.69
2016-05-11T04:55:53.238Z,16.65
2016-05-11T04:56:53.239Z,16.68
2016-05-11T04:57:53.243Z,16.59
2016-05-11T04:58:53.245Z,16.61
2016-05-11T04:59:53.232Z,16.64
2016-05-11T05:00:53.375Z,16.51
2016-05-11T05:01:53.238Z,16.58
2016-05-11T05:02:52.944Z,16.51
2016-05-11T05:03:53.259Z,16.58
2016-05-11T05:04:53.246Z,16.57
2016-05-11T05:05:53.264Z,16.55
2016-05-11T05:06:53.283Z,16.66
2016-05-11T05:07:53.300Z,16.69
2016-05-11T05:08:53.116Z,16.74
2016-05-11T05:09:53.259Z,16.73
2016-05-11T05:10:53.106Z,16.87
2016-05-11T05:11:53.264Z,16.97
2016-05-11T05:12:53.283Z,17.09
2016-05-11T05:13:53.286Z,16.99
2016-05-11T05:14:53.304Z,17.13
2016-05-11T05:15:53.354Z,17.17
2016-05-11T05:16:53.122Z,17.24
2016-05-11T05:17:53.124Z,17.27
2016-05-11T05:18:53.455Z,17.34
2016-05-11T05:19:53.396Z,17.38
2016-05-11T05:20:53.273Z,17.56
2016-05-11T05:21:53.338Z,17.6
2016-05-11T05:22:53.138Z,17.69
2016-05-11T05:23:53.312Z,17.78
2016-05-11T05:24:53.300Z,17.82
2016-05-11T05:25:53.473Z,17.94
2016-05-11T05:26:53.290Z,17.97
2016-05-11T05:27:53.136Z,17.98
2016-05-11T05:28:53.139Z,18.12
2016-05-11T05:29:53.297Z,18.18
2016-05-11T05:30:53.488Z,18.55
2016-05-11T05:31:53.303Z,18.76
2016-05-11T05:32:53.321Z,18.83
2016-05-11T05:33:53.324Z,18.97
2016-05-11T05:34:53.311Z,18.92
2016-05-11T05:35:53.314Z,18.91
2016-05-11T05:36:53.160Z,18.94
2016-05-11T05:37:53.319Z,18.85
2016-05-11T05:38:53.322Z,18.91
2016-05-11T05:39:53.340Z,18.92
2016-05-11T05:40:53.171Z,19.04
2016-05-11T05:41:53.330Z,19.17
2016-05-11T05:42:53.333Z,19.34
2016-05-11T05:43:53.335Z,19.53
2016-05-11T05:44:53.166Z,19.81
2016-05-11T05:45:53.200Z,20.34
2016-05-11T05:46:53.327Z,20.93
2016-05-11T05:47:53.377Z,21.43
2016-05-11T05:48:53.349Z,21.96
2016-05-11T05:49:53.196Z,22.43
2016-05-11T05:50:53.354Z,22.89
2016-05-11T05:51:53.357Z,23.44
2016-05-11T05:52:53.359Z,23.69
2016-05-11T05:53:53.362Z,23.96
2016-05-11T05:54:53.365Z,24.01
2016-05-11T05:55:53.367Z,24
2016-05-11T05:56:53.370Z,23.7
2016-05-11T05:57:53.373Z,23.42
2016-05-11T05:58:53.375Z,23.2
2016-05-11T05:59:53.378Z,22.92
2016-05-11T06:00:53.240Z,22.55
2016-05-11T06:01:53.398Z,22.38
2016-05-11T06:02:53.387Z,22.18
2016-05-11T06:03:53.248Z,21.99
2016-05-11T06:04:53.251Z,21.83
2016-05-11T06:05:53.253Z,21.59
2016-05-11T06:06:53.256Z,21.66
2016-05-11T06:07:53.415Z,21.65
2016-05-11T06:08:53.402Z,21.59
2016-05-11T06:09:53.281Z,21.53
2016-05-11T06:10:53.408Z,21.56
2016-05-11T06:11:53.113Z,21.33
2016-05-11T06:12:53.273Z,21.26
2016-05-11T06:13:53.431Z,21.23
2016-05-11T06:14:53.294Z,21.08
2016-05-11T06:15:53.296Z,21
2016-05-11T06:16:53.471Z,20.89
2016-05-11T06:17:53.458Z,20.88
2016-05-11T06:18:53.304Z,20.93
2016-05-11T06:19:57.855Z,20.98
2016-05-11T06:20:53.543Z,21.03
2016-05-11T06:21:56.624Z,21.04
2016-05-11T06:22:56.550Z,21.11
2016-05-11T06:24:02.177Z,21.08
2016-05-11T06:24:54.273Z,21.15
2016-05-11T06:26:00.479Z,21.28
2016-05-11T06:26:57.716Z,21.23
2016-05-11T06:27:54.923Z,21.28
2016-05-11T06:28:54.926Z,21.32
2016-05-11T06:29:53.490Z,21.41
2016-05-11T06:30:54.102Z,21.41
2016-05-11T06:31:53.495Z,21.65
2016-05-11T06:32:53.499Z,21.74
2016-05-11T06:33:53.360Z,21.85
2016-05-11T06:34:53.504Z,21.99
2016-05-11T06:35:53.351Z,22.16
2016-05-11T06:36:53.509Z,22.53
2016-05-11T06:37:53.512Z,22.71
2016-05-11T06:38:53.514Z,22.86
2016-05-11T06:39:53.376Z,23.1
2016-05-11T06:40:53.536Z,23.25
2016-05-11T06:41:53.538Z,23.4
2016-05-11T06:42:53.556Z,23.55
2016-05-11T06:43:53.543Z,23.74
2016-05-11T06:44:53.421Z,23.95
2016-05-11T06:45:54.206Z,24.1
2016-05-11T06:46:53.395Z,24.14
2016-05-11T06:47:53.570Z,24.21
2016-05-11T06:48:53.572Z,24.22
2016-05-11T06:49:53.419Z,24.22
2016-05-11T06:50:53.422Z,24.09
2016-05-11T06:51:53.283Z,23.96
2016-05-11T06:52:53.583Z,23.63
2016-05-11T06:53:53.602Z,23.44
2016-05-11T06:54:53.588Z,23.32
2016-05-11T06:55:53.638Z,23.33
2016-05-11T06:56:53.610Z,23.39
2016-05-11T06:57:53.456Z,23.51
2016-05-11T06:58:53.459Z,23.62
2016-05-11T06:59:53.462Z,23.55
2016-05-11T07:00:53.512Z,23.56
2016-05-11T07:01:53.640Z,23.55
2016-05-11T07:02:53.469Z,23.58
2016-05-11T07:03:53.676Z,23.62
2016-05-11T07:04:53.648Z,23.69
2016-05-11T07:05:53.650Z,23.74
2016-05-11T07:06:53.653Z,23.71
2016-05-11T07:07:53.514Z,23.81
2016-05-11T07:08:53.658Z,24
2016-05-11T07:09:53.661Z,24.26
2016-05-11T07:10:53.678Z,24.38
2016-05-11T07:11:53.681Z,24.74
2016-05-11T07:12:53.683Z,25.29
2016-05-11T07:13:53.687Z,25.98
2016-05-11T07:14:53.705Z,27.08
2016-05-11T07:15:53.755Z,28.49
2016-05-11T07:16:53.710Z,29.59
2016-05-11T07:17:53.713Z,30.65
2016-05-11T07:18:53.731Z,31.51
2016-05-11T07:19:53.733Z,32.54
2016-05-11T07:20:53.736Z,33.72
2016-05-11T07:21:53.724Z,34.76
2016-05-11T07:22:53.741Z,35.88
2016-05-11T07:23:53.744Z,36.75
2016-05-11T07:24:53.747Z,37.45
2016-05-11T07:25:53.765Z,38.29
2016-05-11T07:26:53.769Z,38.98
2016-05-11T07:27:53.772Z,39.85
2016-05-11T07:28:53.633Z,40.51
2016-05-11T07:29:53.776Z,40.83
2016-05-11T07:30:54.513Z,40.85
2016-05-11T07:31:53.798Z,40.66
2016-05-11T07:32:53.659Z,40.32
2016-05-11T07:33:53.818Z,40
2016-05-11T07:34:53.681Z,39.22
2016-05-11T07:35:53.684Z,38.57
2016-05-11T07:36:53.842Z,37.72
2016-05-11T07:37:53.689Z,36.45
2016-05-11T07:38:53.848Z,35.3
2016-05-11T07:39:53.882Z,34.53
2016-05-11T07:40:53.869Z,33.87
2016-05-11T07:41:53.731Z,33.4
2016-05-11T07:42:53.875Z,32.59
2016-05-11T07:43:53.892Z,31.86
2016-05-11T07:44:53.911Z,31.44
2016-05-11T07:45:54.367Z,31.1
2016-05-11T07:46:53.917Z,30.63
2016-05-11T07:47:53.934Z,30.23
2016-05-11T07:48:53.922Z,30.11
2016-05-11T07:49:53.939Z,29.9
2016-05-11T07:50:53.942Z,29.96
2016-05-11T07:51:53.960Z,30.02
2016-05-11T07:52:53.963Z,30.21
2016-05-11T07:53:53.967Z,30.32
2016-05-11T07:54:53.828Z,30.21
2016-05-11T07:55:53.988Z,30.16
2016-05-11T07:56:53.990Z,29.86
2016-05-11T07:57:53.992Z,29.47
2016-05-11T07:58:54.011Z,29.31
2016-05-11T07:59:54.014Z,29.25
2016-05-11T08:00:53.923Z,29.16
2016-05-11T08:01:53.879Z,29.21
2016-05-11T08:02:54.053Z,29.28
2016-05-11T08:03:54.040Z,29.44
2016-05-11T08:04:54.043Z,29.59
2016-05-11T08:05:53.905Z,29.83
2016-05-11T08:06:53.923Z,29.86
2016-05-11T08:07:54.067Z,29.61
2016-05-11T08:08:54.084Z,29.27
2016-05-11T08:09:54.103Z,28.87
2016-05-11T08:10:54.106Z,28.67
2016-05-11T08:11:54.124Z,28.31
2016-05-11T08:12:54.111Z,27.9
2016-05-11T08:13:54.114Z,27.38
2016-05-11T08:14:54.132Z,27.03
2016-05-11T08:15:53.978Z,26.81
2016-05-11T08:16:54.137Z,26.29
2016-05-11T08:17:54.156Z,25.96
2016-05-11T08:18:54.158Z,25.76
2016-05-11T08:19:54.145Z,25.41
2016-05-11T08:20:54.164Z,25.25
2016-05-11T08:21:54.025Z,25.04
2016-05-11T08:22:54.169Z,24.81
2016-05-11T08:23:54.188Z,24.58
2016-05-11T08:24:54.191Z,24.25
2016-05-11T08:25:54.193Z,24.07
2016-05-11T08:26:54.055Z,24.13
2016-05-11T08:27:54.214Z,24.43
2016-05-11T08:28:54.232Z,24.68
2016-05-11T08:29:54.235Z,24.86
2016-05-11T08:30:54.113Z,25.22
2016-05-11T08:31:54.084Z,25.58
2016-05-11T08:32:54.102Z,25.86
2016-05-11T08:33:54.262Z,26.08
2016-05-11T08:34:54.264Z,26.06
2016-05-11T08:35:54.282Z,26.22
2016-05-11T08:36:54.488Z,26.39
2016-05-11T08:37:54.287Z,26.52
2016-05-11T08:38:54.134Z,26.79
2016-05-11T08:39:54.137Z,27.28
2016-05-11T08:40:54.296Z,27.85
2016-05-11T08:41:54.329Z,28.34
2016-05-11T08:42:54.317Z,28.45
2016-05-11T08:43:54.179Z,28.27
2016-05-11T08:44:54.322Z,27.91
2016-05-11T08:45:54.965Z,27.34
2016-05-11T08:46:54.343Z,26.88
2016-05-11T08:47:54.345Z,26.46
2016-05-11T08:48:54.365Z,26.16
2016-05-11T08:49:54.367Z,25.83
2016-05-11T08:50:54.369Z,25.59
2016-05-11T08:51:54.388Z,25.62
2016-05-11T08:52:54.375Z,25.56
2016-05-11T08:53:54.393Z,25.36
2016-05-11T08:54:54.396Z,25.31
2016-05-11T08:55:54.399Z,25.09
2016-05-11T08:56:54.261Z,25
2016-05-11T08:57:54.419Z,24.79
2016-05-11T08:58:54.282Z,24.68
2016-05-11T08:59:54.441Z,24.48
2016-05-11T09:00:54.443Z,24.32
2016-05-11T09:01:54.430Z,24.24
2016-05-11T09:02:54.293Z,24.04
2016-05-11T09:03:54.452Z,24
2016-05-11T09:04:54.298Z,24.01
2016-05-11T09:05:54.315Z,24.04
2016-05-11T09:06:54.319Z,23.95
2016-05-11T09:07:54.478Z,23.86
2016-05-11T09:08:54.480Z,23.77
2016-05-11T09:09:54.499Z,23.63
2016-05-11T09:10:54.486Z,23.62
2016-05-11T09:11:54.504Z,23.54
2016-05-11T09:12:54.523Z,23.42
2016-05-11T09:13:54.509Z,23.42
2016-05-11T09:14:54.528Z,23.44
2016-05-11T09:16:22.686Z,23.37
2016-05-11T09:16:54.392Z,23.54
2016-05-11T09:17:54.551Z,23.66
2016-05-11T09:18:54.538Z,23.84
2016-05-11T09:19:54.589Z,23.96
2016-05-11T09:20:54.559Z,24.18
2016-05-11T09:21:54.406Z,24.5
2016-05-11T09:22:54.565Z,24.74
2016-05-11T09:23:54.567Z,25.16
2016-05-11T09:24:54.586Z,25.41
2016-05-11T09:25:54.605Z,25.85
2016-05-11T09:26:54.607Z,26.16
2016-05-11T09:27:54.610Z,26.37
2016-05-11T09:28:54.613Z,26.49
2016-05-11T09:29:54.615Z,26.7
2016-05-11T09:30:54.461Z,26.81
2016-05-11T09:31:54.621Z,27.01
2016-05-11T09:32:54.623Z,27.34
2016-05-11T09:33:54.469Z,27.35
2016-05-11T09:34:54.488Z,27.23
2016-05-11T09:35:54.662Z,27.16
2016-05-11T09:36:54.649Z,27.07
2016-05-11T09:37:54.651Z,27.04
2016-05-11T09:38:54.671Z,27.07
2016-05-11T09:39:54.346Z,27.19
2016-05-11T09:40:54.535Z,27.07
2016-05-11T09:41:54.663Z,26.92
2016-05-11T09:42:54.525Z,26.67
2016-05-11T09:43:54.684Z,26.31
2016-05-11T09:44:54.717Z,26.31
2016-05-11T09:45:55.314Z,26.16
2016-05-11T09:46:54.723Z,26.11
2016-05-11T09:47:54.554Z,26.08
2016-05-11T09:48:54.572Z,26.15
2016-05-11T09:49:54.731Z,26.3
2016-05-11T09:50:54.734Z,26.36
2016-05-11T09:51:54.737Z,26.27
2016-05-11T09:52:54.724Z,26.24
2016-05-11T09:53:54.742Z,26.23
2016-05-11T09:54:54.744Z,26.31
2016-05-11T09:55:54.450Z,26.1
2016-05-11T09:56:54.750Z,26.1
2016-05-11T09:57:54.769Z,25.95
2016-05-11T09:58:54.615Z,25.78
2016-05-11T09:59:54.774Z,25.78
2016-05-11T10:00:54.635Z,25.83
2016-05-11T10:01:54.794Z,25.83
2016-05-11T10:02:54.829Z,25.89
2016-05-11T10:03:54.643Z,25.86
2016-05-11T10:04:54.647Z,25.92
2016-05-11T10:05:54.665Z,25.95
2016-05-11T10:06:54.824Z,25.83
2016-05-11T10:07:54.827Z,25.73
2016-05-11T10:08:54.829Z,25.85
2016-05-11T10:09:54.832Z,25.86
2016-05-11T10:10:54.851Z,25.98
2016-05-11T10:11:54.853Z,26.15
2016-05-11T10:12:54.871Z,26.18
2016-05-11T10:13:54.859Z,26.29
2016-05-11T10:14:54.876Z,26.29
2016-05-11T10:15:54.989Z,26.15
2016-05-11T10:16:54.882Z,26.29
2016-05-11T10:17:54.884Z,26.29
2016-05-11T10:18:54.732Z,26.37
2016-05-11T10:19:54.906Z,26.29
2016-05-11T10:20:54.893Z,26.19
2016-05-11T10:21:54.911Z,26.04
2016-05-11T10:22:54.897Z,25.62
2016-05-11T10:23:54.761Z,25.31
2016-05-11T10:24:54.763Z,25.09
2016-05-11T10:25:54.922Z,25.06
2016-05-11T10:26:54.925Z,25.11
2016-05-11T10:27:54.771Z,25.25
2016-05-11T10:28:54.789Z,25.37
2016-05-11T10:29:54.949Z,25.46
2016-05-11T10:30:54.966Z,25.56
2016-05-11T10:32:47.080Z,25.73
2016-05-11T10:32:59.566Z,25.68
2016-05-11T10:33:59.585Z,25.83
2016-05-11T10:34:59.274Z,26.01
2016-05-11T10:35:59.591Z,25.96
2016-05-11T10:36:59.576Z,25.88
2016-05-11T10:37:59.596Z,25.81
2016-05-11T10:38:59.598Z,25.8
2016-05-11T10:39:59.616Z,25.68
2016-05-11T10:40:59.604Z,25.56
2016-05-11T10:41:59.450Z,25.55
2016-05-11T10:42:59.624Z,25.51
2016-05-11T10:43:59.611Z,25.63
2016-05-11T10:44:59.457Z,25.81
2016-05-11T10:46:00.163Z,25.86
2016-05-11T10:46:59.650Z,26.04
2016-05-11T10:47:59.637Z,25.98
2016-05-11T10:49:02.375Z,26.04
2016-05-11T10:49:59.643Z,26.08
2016-05-11T10:50:59.645Z,25.91
2016-05-11T10:51:59.523Z,25.92
2016-05-11T10:52:59.667Z,25.93
2016-05-11T10:54:02.264Z,25.85
2016-05-11T10:54:59.672Z,25.85
2016-05-11T10:55:59.675Z,25.73
2016-05-11T10:56:59.692Z,25.83
2016-05-11T10:57:59.695Z,26.06
2016-05-11T10:59:00.948Z,26.15
2016-05-11T10:59:59.733Z,26.23
2016-05-11T11:00:59.735Z,26.13
2016-05-11T11:01:59.706Z,26.01
2016-05-11T11:02:59.709Z,25.93
2016-05-11T11:04:00.478Z,25.99
2016-05-11T11:04:59.730Z,25.85
2016-05-11T11:05:59.733Z,25.76
2016-05-11T11:06:59.752Z,25.77
2016-05-11T11:07:59.754Z,25.81
2016-05-11T11:09:02.413Z,25.93
2016-05-11T11:09:59.759Z,25.96
2016-05-11T11:10:59.778Z,26.1
2016-05-11T11:11:59.765Z,25.99
2016-05-11T11:12:59.782Z,25.96
2016-05-11T11:14:00.427Z,25.86
2016-05-11T11:14:59.788Z,25.8
2016-05-11T11:15:59.634Z,25.81
2016-05-11T11:16:59.809Z,25.78
2016-05-11T11:17:59.641Z,25.74
2016-05-11T11:19:01.581Z,25.7
2016-05-11T11:19:59.848Z,25.76
2016-05-11T11:20:59.805Z,25.74
2016-05-11T11:21:59.667Z,25.81
2016-05-11T11:22:59.826Z,25.89
2016-05-11T11:24:01.328Z,25.91
2016-05-11T11:24:59.847Z,25.88
2016-05-11T11:25:59.693Z,25.88
2016-05-11T11:26:59.852Z,25.85
2016-05-11T11:27:59.870Z,25.81
2016-05-11T11:29:00.529Z,25.78
2016-05-11T11:29:59.860Z,25.85
2016-05-11T11:31:00.238Z,25.83
2016-05-11T11:31:59.741Z,25.76
2016-05-11T11:32:59.884Z,25.83
2016-05-11T11:34:02.011Z,25.71
2016-05-11T11:34:59.889Z,25.67
2016-05-11T11:35:59.751Z,25.66
2016-05-11T11:36:59.894Z,25.61
2016-05-11T11:37:59.897Z,25.46
2016-05-11T11:39:02.430Z,25.54
2016-05-11T11:39:59.762Z,25.46
2016-05-11T11:40:59.765Z,25.39
2016-05-11T11:41:59.783Z,25.37
2016-05-11T11:42:59.926Z,25.33
2016-05-11T11:43:59.991Z,25.33
2016-05-11T11:44:59.947Z,25.29
2016-05-11T11:46:00.216Z,25.39
2016-05-11T11:46:59.952Z,25.36
2016-05-11T11:47:59.955Z,25.51
2016-05-11T11:49:00.693Z,25.49
2016-05-11T11:49:59.960Z,25.61
2016-05-11T11:50:59.978Z,25.54
2016-05-11T11:51:59.982Z,25.56
2016-05-11T11:52:59.984Z,25.41
2016-05-11T11:54:00.503Z,25.41
2016-05-11T11:54:59.833Z,25.31
2016-05-11T11:56:00.009Z,25.25
2016-05-11T11:57:00.011Z,25.07
2016-05-11T11:58:00.013Z,24.88
2016-05-11T11:59:01.595Z,24.96
2016-05-11T12:00:01.113Z,24.96
2016-05-11T12:00:59.865Z,25.09
2016-05-11T12:01:59.867Z,25.06
2016-05-11T12:02:59.886Z,25.11
2016-05-11T12:03:59.873Z,25.07
2016-05-11T12:04:59.891Z,24.99
2016-05-11T12:05:59.894Z,24.96
2016-05-11T12:07:00.038Z,24.96
2016-05-11T12:08:00.056Z,25.04
2016-05-11T12:09:00.058Z,25.14
2016-05-11T12:10:00.061Z,25.24
2016-05-11T12:11:00.080Z,25.3
2016-05-11T12:12:00.083Z,25.43
2016-05-11T12:13:00.085Z,25.54
2016-05-11T12:14:00.088Z,25.59
2016-05-11T12:14:59.934Z,25.68
2016-05-11T12:16:00.546Z,25.83
2016-05-11T12:17:00.096Z,25.81
2016-05-11T12:17:59.957Z,25.88
2016-05-11T12:19:00.132Z,25.93
2016-05-11T12:20:00.120Z,25.93
2016-05-11T12:21:00.123Z,25.99
2016-05-11T12:22:00.140Z,26.03
2016-05-11T12:23:00.143Z,25.88
2016-05-11T12:24:00.146Z,25.81
2016-05-11T12:25:00.148Z,25.74
2016-05-11T12:26:00.151Z,25.68
2016-05-11T12:27:00.139Z,25.73
2016-05-11T12:28:00.142Z,25.61
2016-05-11T12:29:00.159Z,25.67
2016-05-11T12:30:00.162Z,25.61
2016-05-11T12:31:00.399Z,25.66
2016-05-11T12:32:00.183Z,25.66
2016-05-11T12:33:00.186Z,25.73
2016-05-11T12:34:00.188Z,25.78
2016-05-11T12:35:00.206Z,25.76
2016-05-11T12:36:00.225Z,25.86
2016-05-11T12:37:00.237Z,25.95
2016-05-11T12:38:00.366Z,26.01
2016-05-11T12:39:00.337Z,26.18
2016-05-11T12:40:00.387Z,26.1
2016-05-11T12:41:00.266Z,26.3
2016-05-11T12:42:00.470Z,26.23
2016-05-11T12:43:00.490Z,26.42
2016-05-11T12:44:00.509Z,26.49
2016-05-11T12:45:00.545Z,26.53
2016-05-11T12:46:01.096Z,26.61
2016-05-11T12:47:00.578Z,26.66
2016-05-11T12:48:00.571Z,26.64
2016-05-11T12:49:00.596Z,26.61
2016-05-11T12:50:00.605Z,26.59
2016-05-11T12:51:00.614Z,26.44
2016-05-11T12:52:00.620Z,26.41
2016-05-11T12:53:00.625Z,26.19
2016-05-11T12:54:00.645Z,26.1
2016-05-11T12:55:00.634Z,26.08
2016-05-11T12:56:00.498Z,26.11